AVA9613 SKSP-SKCL
Flight info
| Callsign | AVA9613 |
|---|---|
| Flight time | N/A |
| Altitude | 37000 |
| Route | BIXOX2B BIXOX DCT MORLI UN420 BUSMO UW90 ASIKO ASIKO1C |
| Aircraft | A320/M-SDE3FGHIRWY/LB1 |
Departure
| Time | N/A |
|---|---|
| Airport | Gustavo Rojas Pinilla International Airport (SKSP) |
Arrival
| Time | 2026-04-29 17:47 |
|---|---|
| Airport | Alfonso Bonilla Aragon International Airport (SKCL) |
| Time | Latitude | Longitude | Altitude | Speed | Heading |
|---|---|---|---|---|---|
| 2026-04-29 16:59 | 7.47779 | -78.79341 | 36897 ft | 443 kts | 153° |
| 2026-04-29 17:00 | 7.42481 | -78.76146 | 36895 ft | 443 kts | 152° |
| 2026-04-29 17:00 | 7.37197 | -78.72907 | 36893 ft | 444 kts | 152° |
| 2026-04-29 17:01 | 7.31895 | -78.69676 | 36892 ft | 445 kts | 152° |
| 2026-04-29 17:01 | 7.26595 | -78.66468 | 36888 ft | 445 kts | 152° |
| 2026-04-29 17:02 | 7.21311 | -78.63273 | 36889 ft | 445 kts | 152° |
| 2026-04-29 17:02 | 7.15981 | -78.60040 | 36892 ft | 446 kts | 152° |
| 2026-04-29 17:03 | 7.10666 | -78.56811 | 36895 ft | 446 kts | 152° |
| 2026-04-29 17:03 | 7.05343 | -78.53588 | 36897 ft | 446 kts | 152° |
| 2026-04-29 17:04 | 7.00050 | -78.50385 | 36903 ft | 446 kts | 152° |
| 2026-04-29 17:04 | 6.94706 | -78.47154 | 36902 ft | 446 kts | 152° |
| 2026-04-29 17:05 | 6.89407 | -78.43949 | 36904 ft | 446 kts | 152° |
| 2026-04-29 17:05 | 6.84084 | -78.40734 | 36904 ft | 446 kts | 152° |
| 2026-04-29 17:06 | 6.78748 | -78.37504 | 36906 ft | 446 kts | 152° |
| 2026-04-29 17:06 | 6.73446 | -78.34296 | 36904 ft | 446 kts | 152° |
| 2026-04-29 17:07 | 6.68097 | -78.31092 | 36905 ft | 446 kts | 152° |
| 2026-04-29 17:07 | 6.62717 | -78.27960 | 36905 ft | 446 kts | 153° |
| 2026-04-29 17:08 | 6.57383 | -78.24866 | 36904 ft | 445 kts | 152° |
| 2026-04-29 17:08 | 6.52011 | -78.21726 | 36904 ft | 446 kts | 152° |
| 2026-04-29 17:09 | 6.46647 | -78.18582 | 36905 ft | 446 kts | 152° |
| 2026-04-29 17:09 | 6.41303 | -78.15448 | 36905 ft | 446 kts | 152° |
| 2026-04-29 17:10 | 6.35930 | -78.12303 | 36907 ft | 446 kts | 152° |
| 2026-04-29 17:10 | 6.30594 | -78.09182 | 36905 ft | 446 kts | 152° |
| 2026-04-29 17:11 | 6.25219 | -78.06043 | 36902 ft | 446 kts | 152° |
| 2026-04-29 17:11 | 6.19869 | -78.02921 | 36900 ft | 447 kts | 152° |
| 2026-04-29 17:12 | 6.14480 | -77.99770 | 36900 ft | 447 kts | 152° |
| 2026-04-29 17:12 | 6.10009 | -77.97154 | 36901 ft | 447 kts | 152° |
| 2026-04-29 17:13 | 6.03737 | -77.93481 | 36888 ft | 448 kts | 152° |
| 2026-04-29 17:13 | 5.98320 | -77.90328 | 36879 ft | 450 kts | 152° |
| 2026-04-29 17:14 | 5.92924 | -77.87185 | 36888 ft | 450 kts | 153° |
| 2026-04-29 17:14 | 5.87516 | -77.84018 | 36908 ft | 449 kts | 153° |
| 2026-04-29 17:15 | 5.82115 | -77.80855 | 36914 ft | 448 kts | 153° |
| 2026-04-29 17:15 | 5.76746 | -77.77720 | 36915 ft | 447 kts | 153° |
| 2026-04-29 17:16 | 5.71372 | -77.74594 | 36911 ft | 447 kts | 153° |
| 2026-04-29 17:16 | 5.65967 | -77.71448 | 36910 ft | 447 kts | 153° |
| 2026-04-29 17:17 | 5.60622 | -77.68333 | 36908 ft | 447 kts | 153° |
| 2026-04-29 17:17 | 5.55232 | -77.65186 | 36912 ft | 446 kts | 153° |
| 2026-04-29 17:18 | 5.49862 | -77.62056 | 36911 ft | 445 kts | 153° |
| 2026-04-29 17:18 | 5.44530 | -77.58950 | 36914 ft | 444 kts | 153° |
| 2026-04-29 17:19 | 5.39163 | -77.55820 | 36897 ft | 445 kts | 153° |
| 2026-04-29 17:19 | 5.33805 | -77.52701 | 36892 ft | 446 kts | 153° |
| 2026-04-29 17:20 | 5.28462 | -77.49590 | 36899 ft | 447 kts | 153° |
| 2026-04-29 17:20 | 5.23071 | -77.46452 | 36900 ft | 447 kts | 153° |
| 2026-04-29 17:21 | 5.17680 | -77.43310 | 36887 ft | 448 kts | 152° |
| 2026-04-29 17:21 | 5.12298 | -77.40181 | 36879 ft | 450 kts | 152° |
| 2026-04-29 17:22 | 5.06867 | -77.37020 | 36884 ft | 451 kts | 152° |
| 2026-04-29 17:22 | 5.01427 | -77.33852 | 36888 ft | 452 kts | 152° |
| 2026-04-29 17:23 | 4.96000 | -77.30691 | 36898 ft | 453 kts | 152° |
| 2026-04-29 17:23 | 4.90536 | -77.27511 | 36906 ft | 453 kts | 152° |
| 2026-04-29 17:24 | 4.85070 | -77.24334 | 36912 ft | 453 kts | 152° |
| 2026-04-29 17:24 | 4.79643 | -77.21183 | 36896 ft | 454 kts | 152° |
| 2026-04-29 17:25 | 4.74153 | -77.17991 | 36893 ft | 456 kts | 152° |
| 2026-04-29 17:25 | 4.68660 | -77.14799 | 36894 ft | 458 kts | 152° |
| 2026-04-29 17:26 | 4.64075 | -77.12134 | 36902 ft | 458 kts | 152° |
| 2026-04-29 17:26 | 4.58546 | -77.08920 | 36909 ft | 459 kts | 152° |
| 2026-04-29 17:27 | 4.53015 | -77.05707 | 36917 ft | 459 kts | 152° |
| 2026-04-29 17:27 | 4.47465 | -77.02487 | 36847 ft | 460 kts | 152° |
| 2026-04-29 17:28 | 4.44690 | -77.00874 | 36599 ft | 460 kts | 152° |
| 2026-04-29 17:28 | 4.41931 | -76.99269 | 36360 ft | 463 kts | 151° |
| 2026-04-29 17:28 | 4.39134 | -76.97643 | 36113 ft | 464 kts | 151° |
| 2026-04-29 17:28 | 4.36337 | -76.96021 | 35874 ft | 465 kts | 151° |
| 2026-04-29 17:29 | 4.33524 | -76.94393 | 35636 ft | 466 kts | 151° |
| 2026-04-29 17:29 | 4.30743 | -76.92785 | 35144 ft | 469 kts | 151° |
| 2026-04-29 17:29 | 4.27899 | -76.91137 | 34212 ft | 475 kts | 150° |
| 2026-04-29 17:29 | 4.25017 | -76.89476 | 33166 ft | 480 kts | 153° |
| 2026-04-29 17:30 | 4.21963 | -76.88083 | 32189 ft | 483 kts | 159° |
| 2026-04-29 17:30 | 4.18836 | -76.86837 | 31186 ft | 477 kts | 158° |
| 2026-04-29 17:30 | 4.15795 | -76.85620 | 29908 ft | 474 kts | 157° |
| 2026-04-29 17:30 | 4.12747 | -76.84401 | 28640 ft | 466 kts | 157° |
| 2026-04-29 17:31 | 4.09754 | -76.83204 | 27462 ft | 462 kts | 158° |
| 2026-04-29 17:31 | 4.06745 | -76.82001 | 26439 ft | 465 kts | 157° |
| 2026-04-29 17:31 | 4.03749 | -76.80805 | 25694 ft | 460 kts | 157° |
| 2026-04-29 17:31 | 4.00831 | -76.79642 | 24906 ft | 450 kts | 157° |
| 2026-04-29 17:32 | 3.97966 | -76.78499 | 24179 ft | 434 kts | 157° |
| 2026-04-29 17:32 | 3.95193 | -76.77394 | 23424 ft | 420 kts | 158° |
| 2026-04-29 17:32 | 3.92502 | -76.76318 | 22686 ft | 416 kts | 157° |
| 2026-04-29 17:32 | 3.89810 | -76.75241 | 22000 ft | 415 kts | 157° |
| 2026-04-29 17:33 | 3.87121 | -76.74169 | 21343 ft | 413 kts | 157° |
| 2026-04-29 17:33 | 3.84485 | -76.73117 | 20726 ft | 411 kts | 157° |
| 2026-04-29 17:33 | 3.81824 | -76.72054 | 20097 ft | 408 kts | 157° |
| 2026-04-29 17:33 | 3.79184 | -76.70998 | 19502 ft | 407 kts | 157° |
| 2026-04-29 17:34 | 3.76581 | -76.69960 | 18910 ft | 405 kts | 157° |
| 2026-04-29 17:34 | 3.73972 | -76.68920 | 18376 ft | 402 kts | 157° |
| 2026-04-29 17:34 | 3.71357 | -76.67880 | 17708 ft | 401 kts | 157° |
| 2026-04-29 17:34 | 3.68807 | -76.66865 | 17199 ft | 396 kts | 156° |
| 2026-04-29 17:35 | 3.64550 | -76.65170 | 16312 ft | 389 kts | 156° |
| 2026-04-29 17:35 | 3.61248 | -76.63851 | 15863 ft | 378 kts | 156° |
| 2026-04-29 17:35 | 3.58872 | -76.62902 | 15744 ft | 364 kts | 156° |
| 2026-04-29 17:36 | 3.56548 | -76.61974 | 15623 ft | 351 kts | 156° |
| 2026-04-29 17:36 | 3.54316 | -76.61081 | 15512 ft | 340 kts | 156° |
| 2026-04-29 17:36 | 3.52144 | -76.60219 | 15390 ft | 332 kts | 159° |
| 2026-04-29 17:36 | 3.49977 | -76.59656 | 15038 ft | 320 kts | 169° |
| 2026-04-29 17:37 | 3.47788 | -76.59342 | 14877 ft | 318 kts | 169° |
| 2026-04-29 17:37 | 3.45604 | -76.59029 | 14572 ft | 319 kts | 169° |
| 2026-04-29 17:37 | 3.43374 | -76.58710 | 14181 ft | 321 kts | 169° |
| 2026-04-29 17:37 | 3.41178 | -76.58398 | 13942 ft | 317 kts | 169° |
| 2026-04-29 17:38 | 3.39022 | -76.58091 | 13644 ft | 315 kts | 169° |
| 2026-04-29 17:38 | 3.36858 | -76.57780 | 13001 ft | 314 kts | 169° |
| 2026-04-29 17:38 | 3.34688 | -76.57466 | 12179 ft | 316 kts | 170° |
| 2026-04-29 17:38 | 3.32498 | -76.57150 | 11448 ft | 315 kts | 169° |
| 2026-04-29 17:39 | 3.30374 | -76.56844 | 11188 ft | 298 kts | 170° |
| 2026-04-29 17:39 | 3.28461 | -76.56307 | 11045 ft | 274 kts | 147° |
| 2026-04-29 17:39 | 3.27166 | -76.55066 | 10914 ft | 253 kts | 120° |
| 2026-04-29 17:39 | 3.26646 | -76.53421 | 10506 ft | 247 kts | 92° |
| 2026-04-29 17:40 | 3.26644 | -76.51715 | 10138 ft | 243 kts | 89° |
| 2026-04-29 17:40 | 3.26652 | -76.50053 | 9792 ft | 239 kts | 89° |
| 2026-04-29 17:40 | 3.26657 | -76.48403 | 9412 ft | 234 kts | 89° |
| 2026-04-29 17:40 | 3.26660 | -76.46788 | 9085 ft | 229 kts | 89° |
| 2026-04-29 17:41 | 3.26668 | -76.45213 | 8769 ft | 224 kts | 86° |
| 2026-04-29 17:41 | 3.27119 | -76.43762 | 8449 ft | 218 kts | 54° |
| 2026-04-29 17:41 | 3.28256 | -76.42782 | 8143 ft | 218 kts | 22° |
| 2026-04-29 17:41 | 3.29449 | -76.42472 | 7910 ft | 217 kts | 9° |
| 2026-04-29 17:42 | 3.30958 | -76.42226 | 7431 ft | 217 kts | 9° |
| 2026-04-29 17:42 | 3.32396 | -76.41975 | 7110 ft | 206 kts | 9° |
| 2026-04-29 17:42 | 3.33777 | -76.41733 | 6849 ft | 195 kts | 8° |
| 2026-04-29 17:42 | 3.34938 | -76.41532 | 6641 ft | 192 kts | 7° |
| 2026-04-29 17:43 | 3.36246 | -76.41302 | 6408 ft | 189 kts | 8° |
| 2026-04-29 17:43 | 3.37534 | -76.41081 | 6161 ft | 185 kts | 8° |
| 2026-04-29 17:43 | 3.38798 | -76.40862 | 5926 ft | 182 kts | 7° |
| 2026-04-29 17:43 | 3.40022 | -76.40650 | 5695 ft | 179 kts | 7° |
| 2026-04-29 17:44 | 3.41241 | -76.40438 | 5472 ft | 176 kts | 8° |
| 2026-04-29 17:44 | 3.42445 | -76.40229 | 5254 ft | 175 kts | 8° |
| 2026-04-29 17:44 | 3.43644 | -76.40021 | 5031 ft | 174 kts | 7° |
| 2026-04-29 17:44 | 3.44825 | -76.39816 | 4814 ft | 167 kts | 8° |
| 2026-04-29 17:45 | 3.45918 | -76.39626 | 4606 ft | 155 kts | 8° |
| 2026-04-29 17:45 | 3.46965 | -76.39445 | 4367 ft | 150 kts | 8° |
| 2026-04-29 17:45 | 3.47988 | -76.39267 | 4176 ft | 148 kts | 9° |
| 2026-04-29 17:45 | 3.48994 | -76.39093 | 3985 ft | 146 kts | 9° |
| 2026-04-29 17:46 | 3.49986 | -76.38921 | 3803 ft | 146 kts | 8° |
| 2026-04-29 17:46 | 3.50990 | -76.38746 | 3605 ft | 145 kts | 8° |
| 2026-04-29 17:46 | 3.51984 | -76.38571 | 3404 ft | 145 kts | 8° |
| 2026-04-29 17:46 | 3.52974 | -76.38397 | 3205 ft | 144 kts | 8° |
| 2026-04-29 17:47 | 3.53889 | -76.38239 | 3171 ft | 122 kts | 8° |
| 2026-04-29 17:47 | 3.54573 | -76.38126 | 3165 ft | 75 kts | 9° |
| 2026-04-29 17:47 | 3.54940 | -76.38062 | 3167 ft | 34 kts | 10° |
| 2026-04-29 17:47 | 3.55070 | -76.38045 | 3167 ft | 6 kts | 340° |
| 2026-04-29 17:48 | 3.55101 | -76.38091 | 3168 ft | 9 kts | 279° |
| 2026-04-29 17:48 | 3.55110 | -76.38168 | 3169 ft | 12 kts | 266° |
| 2026-04-29 17:48 | 3.55043 | -76.38207 | 3170 ft | 12 kts | 189° |
| 2026-04-29 17:48 | 3.54968 | -76.38220 | 3168 ft | 10 kts | 189° |
| 2026-04-29 17:49 | 3.54881 | -76.38234 | 3167 ft | 19 kts | 189° |
| 2026-04-29 17:49 | 3.54739 | -76.38258 | 3166 ft | 22 kts | 190° |
| 2026-04-29 17:49 | 3.54581 | -76.38286 | 3166 ft | 24 kts | 189° |
| 2026-04-29 17:49 | 3.54410 | -76.38316 | 3165 ft | 26 kts | 190° |
| 2026-04-29 17:50 | 3.54247 | -76.38344 | 3166 ft | 23 kts | 190° |
| 2026-04-29 17:50 | 3.54086 | -76.38372 | 3165 ft | 25 kts | 189° |
| 2026-04-29 17:50 | 3.53911 | -76.38402 | 3163 ft | 26 kts | 190° |
| 2026-04-29 17:50 | 3.53751 | -76.38430 | 3165 ft | 16 kts | 189° |
| 2026-04-29 17:51 | 3.53649 | -76.38447 | 3162 ft | 13 kts | 189° |
| 2026-04-29 17:51 | 3.53567 | -76.38469 | 3162 ft | 11 kts | 217° |
| 2026-04-29 17:51 | 3.53550 | -76.38540 | 3162 ft | 11 kts | 271° |
| 2026-04-29 17:51 | 3.53561 | -76.38606 | 3162 ft | 5 kts | 279° |
| 2026-04-29 17:52 | 3.53563 | -76.38616 | 3162 ft | 1 kts | 279° |
| 2026-04-29 17:52 | 3.53563 | -76.38619 | 3162 ft | 1 kts | 279° |
| 2026-04-29 17:52 | 3.53564 | -76.38621 | 3162 ft | 0 kts | 279° |